sensor_id;sensor_type;location;lat;lon;timestamp;pressure;altitude;pressure_sealevel;temperature;humidity
4410;BME280;2218;51.408;7.208;2022-12-19T00:01:17;100204.25;;;17.24;27.15
4410;BME280;2218;51.408;7.208;2022-12-19T00:03:48;100199.94;;;17.23;27.11
4410;BME280;2218;51.408;7.208;2022-12-19T00:06:16;100201.63;;;17.24;27.43
4410;BME280;2218;51.408;7.208;2022-12-19T00:08:45;100194.69;;;17.23;27.34
4410;BME280;2218;51.408;7.208;2022-12-19T00:11:15;100189.41;;;17.23;27.25
4410;BME280;2218;51.408;7.208;2022-12-19T00:13:42;100188.50;;;17.24;27.68
4410;BME280;2218;51.408;7.208;2022-12-19T00:16:12;100185.09;;;17.22;27.35
4410;BME280;2218;51.408;7.208;2022-12-19T00:18:41;100187.72;;;17.22;27.38
4410;BME280;2218;51.408;7.208;2022-12-19T00:21:11;100189.56;;;17.20;27.70
4410;BME280;2218;51.408;7.208;2022-12-19T00:23:41;100171.19;;;17.20;27.60
4410;BME280;2218;51.408;7.208;2022-12-19T00:26:15;100167.72;;;17.20;27.86
4410;BME280;2218;51.408;7.208;2022-12-19T00:28:46;100161.63;;;17.19;27.65
4410;BME280;2218;51.408;7.208;2022-12-19T00:31:16;100166.88;;;17.19;28.01
4410;BME280;2218;51.408;7.208;2022-12-19T00:33:46;100165.19;;;17.18;27.89
4410;BME280;2218;51.408;7.208;2022-12-19T00:36:17;100159.09;;;17.18;27.94
4410;BME280;2218;51.408;7.208;2022-12-19T00:38:45;100158.25;;;17.17;27.79
4410;BME280;2218;51.408;7.208;2022-12-19T00:41:15;100161.81;;;17.16;28.11
4410;BME280;2218;51.408;7.208;2022-12-19T00:43:42;100160.97;;;17.16;28.06
4410;BME280;2218;51.408;7.208;2022-12-19T00:46:12;100163.59;;;17.16;28.30
4410;BME280;2218;51.408;7.208;2022-12-19T00:48:40;100163.63;;;17.14;28.13
4410;BME280;2218;51.408;7.208;2022-12-19T00:51:12;100153.13;;;17.14;28.32
4410;BME280;2218;51.408;7.208;2022-12-19T00:53:43;100144.31;;;17.15;28.41
4410;BME280;2218;51.408;7.208;2022-12-19T00:56:13;100143.56;;;17.13;28.32
4410;BME280;2218;51.408;7.208;2022-12-19T00:58:41;100134.00;;;17.12;28.42
4410;BME280;2218;51.408;7.208;2022-12-19T01:01:11;100151.44;;;17.13;28.45
4410;BME280;2218;51.408;7.208;2022-12-19T01:03:39;100144.50;;;17.12;28.56
4410;BME280;2218;51.408;7.208;2022-12-19T01:06:07;100129.69;;;17.11;28.50
4410;BME280;2218;51.408;7.208;2022-12-19T01:08:34;100137.56;;;17.11;28.50
4410;BME280;2218;51.408;7.208;2022-12-19T01:11:03;100141.97;;;17.11;28.90
4410;BME280;2218;51.408;7.208;2022-12-19T01:13:37;100136.72;;;17.11;28.65
4410;BME280;2218;51.408;7.208;2022-12-19T01:16:10;100127.06;;;17.11;28.82
4410;BME280;2218;51.408;7.208;2022-12-19T01:18:37;100134.16;;;17.09;28.88
4410;BME280;2218;51.408;7.208;2022-12-19T01:21:09;100131.63;;;17.08;28.93
4410;BME280;2218;51.408;7.208;2022-12-19T01:23:36;100130.78;;;17.07;28.99
4410;BME280;2218;51.408;7.208;2022-12-19T01:26:04;100125.53;;;17.07;28.96
4410;BME280;2218;51.408;7.208;2022-12-19T01:28:32;100123.75;;;17.08;29.07
4410;BME280;2218;51.408;7.208;2022-12-19T01:30:59;100134.34;;;17.06;29.22
4410;BME280;2218;51.408;7.208;2022-12-19T01:33:27;100146.53;;;17.07;29.00
4410;BME280;2218;51.408;7.208;2022-12-19T01:35:55;100143.97;;;17.05;29.21
4410;BME280;2218;51.408;7.208;2022-12-19T01:38:23;100144.84;;;17.06;29.43
4410;BME280;2218;51.408;7.208;2022-12-19T01:40:52;100137.72;;;17.08;29.27
4410;BME280;2218;51.408;7.208;2022-12-19T01:43:23;100131.38;;;17.12;29.28
4410;BME280;2218;51.408;7.208;2022-12-19T01:45:57;100119.78;;;17.16;29.18
4410;BME280;2218;51.408;7.208;2022-12-19T01:48:31;100117.75;;;17.21;29.04
4410;BME280;2218;51.408;7.208;2022-12-19T01:51:06;100114.94;;;17.24;29.21
4410;BME280;2218;51.408;7.208;2022-12-19T01:53:43;100117.31;;;17.29;29.21
4410;BME280;2218;51.408;7.208;2022-12-19T01:56:13;100104.19;;;17.29;29.33
4410;BME280;2218;51.408;7.208;2022-12-19T01:58:44;100083.84;;;17.33;29.38
4410;BME280;2218;51.408;7.208;2022-12-19T02:01:14;100081.97;;;17.35;29.09
4410;BME280;2218;51.408;7.208;2022-12-19T02:03:44;100080.13;;;17.37;29.28
4410;BME280;2218;51.408;7.208;2022-12-19T02:06:16;100066.06;;;17.38;29.36
4410;BME280;2218;51.408;7.208;2022-12-19T02:08:47;100068.69;;;17.38;29.27
4410;BME280;2218;51.408;7.208;2022-12-19T02:11:15;100046.72;;;17.39;29.53
4410;BME280;2218;51.408;7.208;2022-12-19T02:13:44;100049.25;;;17.40;29.56
4410;BME280;2218;51.408;7.208;2022-12-19T02:16:24;100045.63;;;17.43;29.29
4410;BME280;2218;51.408;7.208;2022-12-19T02:19:11;100044.69;;;17.44;29.40
4410;BME280;2218;51.408;7.208;2022-12-19T02:21:53;100025.34;;;17.45;29.41
4410;BME280;2218;51.408;7.208;2022-12-19T02:25:04;100019.94;;;17.48;29.55
4410;BME280;2218;51.408;7.208;2022-12-19T02:28:04;100013.84;;;17.47;29.61
4410;BME280;2218;51.408;7.208;2022-12-19T02:30:57;100001.56;;;17.48;29.61
4410;BME280;2218;51.408;7.208;2022-12-19T02:33:35;99996.19;;;17.49;29.46
4410;BME280;2218;51.408;7.208;2022-12-19T02:36:14;99993.56;;;17.49;29.63
4410;BME280;2218;51.408;7.208;2022-12-19T02:38:53;99978.66;;;17.50;29.70
4410;BME280;2218;51.408;7.208;2022-12-19T02:41:31;99979.41;;;17.52;29.75
4410;BME280;2218;51.408;7.208;2022-12-19T02:44:19;99976.69;;;17.53;29.80
4410;BME280;2218;51.408;7.208;2022-12-19T02:46:52;99978.38;;;17.54;29.75
4410;BME280;2218;51.408;7.208;2022-12-19T02:49:24;99973.13;;;17.54;29.74
4410;BME280;2218;51.408;7.208;2022-12-19T02:51:52;99973.97;;;17.55;29.82
4410;BME280;2218;51.408;7.208;2022-12-19T02:54:21;99970.59;;;17.53;29.94
4410;BME280;2218;51.408;7.208;2022-12-19T02:56:54;99963.47;;;17.55;29.70
4410;BME280;2218;51.408;7.208;2022-12-19T02:59:47;99964.34;;;17.55;29.98
4410;BME280;2218;51.408;7.208;2022-12-19T03:02:29;99959.81;;;17.57;29.78
4410;BME280;2218;51.408;7.208;2022-12-19T03:05:12;99970.22;;;17.59;30.00
4410;BME280;2218;51.408;7.208;2022-12-19T03:07:48;99957.94;;;17.60;30.00
4410;BME280;2218;51.408;7.208;2022-12-19T03:10:24;99955.31;;;17.60;30.29
4410;BME280;2218;51.408;7.208;2022-12-19T03:12:57;99950.00;;;17.61;30.18
4410;BME280;2218;51.408;7.208;2022-12-19T03:15:27;99949.03;;;17.62;30.25
4410;BME280;2218;51.408;7.208;2022-12-19T03:17:58;99945.47;;;17.63;30.23
4410;BME280;2218;51.408;7.208;2022-12-19T03:20:35;99949.78;;;17.64;30.28
4410;BME280;2218;51.408;7.208;2022-12-19T03:23:05;99943.69;;;17.64;30.33
4410;BME280;2218;51.408;7.208;2022-12-19T03:25:32;99941.91;;;17.64;30.33
4410;BME280;2218;51.408;7.208;2022-12-19T03:28:07;99939.22;;;17.66;30.31
4410;BME280;2218;51.408;7.208;2022-12-19T03:30:40;99933.06;;;17.65;30.10
4410;BME280;2218;51.408;7.208;2022-12-19T03:33:12;99942.56;;;17.68;30.28
4410;BME280;2218;51.408;7.208;2022-12-19T03:35:41;99933.00;;;17.67;30.47
4410;BME280;2218;51.408;7.208;2022-12-19T03:38:11;99942.56;;;17.68;30.64
4410;BME280;2218;51.408;7.208;2022-12-19T03:40:43;99946.03;;;17.68;30.84
4410;BME280;2218;51.408;7.208;2022-12-19T03:43:14;99947.72;;;17.69;30.29
4410;BME280;2218;51.408;7.208;2022-12-19T03:45:54;99938.16;;;17.68;30.50
4410;BME280;2218;51.408;7.208;2022-12-19T03:48:35;99939.09;;;17.67;30.46
4410;BME280;2218;51.408;7.208;2022-12-19T03:51:16;99935.53;;;17.68;30.40
4410;BME280;2218;51.408;7.208;2022-12-19T03:53:59;99932.91;;;17.68;30.61
4410;BME280;2218;51.408;7.208;2022-12-19T03:56:34;99932.75;;;17.71;30.61
4410;BME280;2218;51.408;7.208;2022-12-19T03:59:09;99925.78;;;17.70;30.67
4410;BME280;2218;51.408;7.208;2022-12-19T04:01:39;99912.56;;;17.72;30.90
4410;BME280;2218;51.408;7.208;2022-12-19T04:04:12;99916.13;;;17.71;30.77
4410;BME280;2218;51.408;7.208;2022-12-19T04:06:42;99916.97;;;17.71;30.75
4410;BME280;2218;51.408;7.208;2022-12-19T04:09:12;99916.97;;;17.71;30.75
4410;BME280;2218;51.408;7.208;2022-12-19T04:11:45;99914.28;;;17.73;30.78
4410;BME280;2218;51.408;7.208;2022-12-19T04:14:21;99904.66;;;17.72;30.94
4410;BME280;2218;51.408;7.208;2022-12-19T04:16:55;99906.28;;;17.74;30.80
4410;BME280;2218;51.408;7.208;2022-12-19T04:19:32;99904.59;;;17.73;30.70
4410;BME280;2218;51.408;7.208;2022-12-19T04:22:07;99900.19;;;17.74;31.01
4410;BME280;2218;51.408;7.208;2022-12-19T04:24:40;99889.75;;;17.72;30.84
4410;BME280;2218;51.408;7.208;2022-12-19T04:27:11;99886.19;;;17.73;30.81
4410;BME280;2218;51.408;7.208;2022-12-19T04:29:40;99887.88;;;17.74;30.80
4410;BME280;2218;51.408;7.208;2022-12-19T04:32:09;99892.22;;;17.75;30.79
4410;BME280;2218;51.408;7.208;2022-12-19T04:34:38;99885.25;;;17.74;30.84
4410;BME280;2218;51.408;7.208;2022-12-19T04:37:06;99875.56;;;17.75;31.12
4410;BME280;2218;51.408;7.208;2022-12-19T04:39:33;99878.13;;;17.76;31.19
4410;BME280;2218;51.408;7.208;2022-12-19T04:41:59;99864.06;;;17.77;31.04
4410;BME280;2218;51.408;7.208;2022-12-19T04:44:26;99868.47;;;17.77;30.95
4410;BME280;2218;51.408;7.208;2022-12-19T04:46:53;99866.56;;;17.79;31.35
4410;BME280;2218;51.408;7.208;2022-12-19T04:49:20;99855.22;;;17.78;31.45
4410;BME280;2218;51.408;7.208;2022-12-19T04:51:48;99864.78;;;17.79;31.36
4410;BME280;2218;51.408;7.208;2022-12-19T04:54:15;99871.00;;;17.78;31.15
4410;BME280;2218;51.408;7.208;2022-12-19T04:56:43;99863.00;;;17.80;31.43
4410;BME280;2218;51.408;7.208;2022-12-19T04:59:10;99866.50;;;17.80;31.89
4410;BME280;2218;51.408;7.208;2022-12-19T05:01:36;99857.84;;;17.78;31.61
4410;BME280;2218;51.408;7.208;2022-12-19T05:04:03;99877.03;;;17.80;31.55
4410;BME280;2218;51.408;7.208;2022-12-19T05:06:31;99860.31;;;17.81;31.57
4410;BME280;2218;51.408;7.208;2022-12-19T05:08:59;99859.34;;;17.82;31.48
4410;BME280;2218;51.408;7.208;2022-12-19T05:11:26;99860.19;;;17.83;31.57
4410;BME280;2218;51.408;7.208;2022-12-19T05:13:53;99865.19;;;17.88;31.83
4410;BME280;2218;51.408;7.208;2022-12-19T05:16:21;99859.19;;;17.86;31.70
4410;BME280;2218;51.408;7.208;2022-12-19T05:18:48;99851.19;;;17.87;31.90
4410;BME280;2218;51.408;7.208;2022-12-19T05:21:15;99854.66;;;17.88;31.75
4410;BME280;2218;51.408;7.208;2022-12-19T05:23:42;99849.22;;;17.91;31.47
4410;BME280;2218;51.408;7.208;2022-12-19T05:26:11;99855.22;;;17.93;31.90
4410;BME280;2218;51.408;7.208;2022-12-19T05:28:38;99852.41;;;17.96;32.13
4410;BME280;2218;51.408;7.208;2022-12-19T05:31:08;99864.63;;;17.97;31.63
4410;BME280;2218;51.408;7.208;2022-12-19T05:33:37;99862.00;;;17.97;31.56
4410;BME280;2218;51.408;7.208;2022-12-19T05:36:06;99860.09;;;17.99;32.22
4410;BME280;2218;51.408;7.208;2022-12-19T05:38:33;99848.84;;;17.97;31.90
4410;BME280;2218;51.408;7.208;2022-12-19T05:41:06;99843.59;;;17.97;31.96
4410;BME280;2218;51.408;7.208;2022-12-19T05:43:35;99839.34;;;17.94;32.28
4410;BME280;2218;51.408;7.208;2022-12-19T05:46:04;99846.00;;;18.00;31.82
4410;BME280;2218;51.408;7.208;2022-12-19T05:48:31;99844.16;;;18.02;32.10
4410;BME280;2218;51.408;7.208;2022-12-19T05:50:58;99851.81;;;18.05;31.86
4410;BME280;2218;51.408;7.208;2022-12-19T05:53:25;99839.44;;;18.07;32.25
4410;BME280;2218;51.408;7.208;2022-12-19T05:56:02;99846.38;;;18.08;32.16
4410;BME280;2218;51.408;7.208;2022-12-19T05:58:30;99852.50;;;18.08;32.17
4410;BME280;2218;51.408;7.208;2022-12-19T06:01:02;99860.31;;;18.10;32.06
4410;BME280;2218;51.408;7.208;2022-12-19T06:03:29;99846.38;;;18.08;32.36
4410;BME280;2218;51.408;7.208;2022-12-19T06:06:01;99851.81;;;18.05;32.42
4410;BME280;2218;51.408;7.208;2022-12-19T06:08:28;99855.41;;;18.04;32.37
4410;BME280;2218;51.408;7.208;2022-12-19T06:10:58;99847.63;;;18.02;32.52
4410;BME280;2218;51.408;7.208;2022-12-19T06:13:26;99851.00;;;18.04;32.63
4410;BME280;2218;51.408;7.208;2022-12-19T06:15:57;99851.94;;;18.03;32.64
4410;BME280;2218;51.408;7.208;2022-12-19T06:18:26;99859.09;;;18.01;32.46
4410;BME280;2218;51.408;7.208;2022-12-19T06:20:58;99850.34;;;18.01;32.73
4410;BME280;2218;51.408;7.208;2022-12-19T06:23:26;99865.19;;;18.02;32.89
4410;BME280;2218;51.408;7.208;2022-12-19T06:25:55;99866.13;;;18.01;32.81
4410;BME280;2218;51.408;7.208;2022-12-19T06:28:23;99860.88;;;18.01;32.88
4410;BME280;2218;51.408;7.208;2022-12-19T06:30:50;99861.78;;;18.00;33.22
4410;BME280;2218;51.408;7.208;2022-12-19T06:33:17;99866.13;;;18.01;33.07
4410;BME280;2218;51.408;7.208;2022-12-19T06:35:45;99861.78;;;18.00;33.18
4410;BME280;2218;51.408;7.208;2022-12-19T06:38:12;99860.09;;;17.99;33.13
4410;BME280;2218;51.408;7.208;2022-12-19T06:40:44;99868.00;;;17.99;33.11
4410;BME280;2218;51.408;7.208;2022-12-19T06:43:28;99862.00;;;17.97;33.42
4410;BME280;2218;51.408;7.208;2022-12-19T06:45:56;99852.31;;;17.97;33.42
4410;BME280;2218;51.408;7.208;2022-12-19T06:48:24;99863.69;;;17.98;33.33
4410;BME280;2218;51.408;7.208;2022-12-19T06:50:53;99854.09;;;17.97;33.30
4410;BME280;2218;51.408;7.208;2022-12-19T06:53:21;99856.72;;;17.97;33.46
4410;BME280;2218;51.408;7.208;2022-12-19T06:55:49;99849.59;;;17.99;33.46
4410;BME280;2218;51.408;7.208;2022-12-19T06:58:17;99840.97;;;17.97;33.71
4410;BME280;2218;51.408;7.208;2022-12-19T07:00:44;99837.47;;;17.96;33.59
4410;BME280;2218;51.408;7.208;2022-12-19T07:03:17;99846.22;;;17.97;33.49
4410;BME280;2218;51.408;7.208;2022-12-19T07:05:45;99861.88;;;17.98;33.56
4410;BME280;2218;51.408;7.208;2022-12-19T07:08:13;99861.06;;;17.98;33.54
4410;BME280;2218;51.408;7.208;2022-12-19T07:10:40;99838.13;;;18.00;33.88
4410;BME280;2218;51.408;7.208;2022-12-19T07:13:07;99843.66;;;18.09;34.59
4410;BME280;2218;51.408;7.208;2022-12-19T07:15:35;99857.06;;;18.19;35.20
4410;BME280;2218;51.408;7.208;2022-12-19T07:18:07;99859.69;;;18.33;34.85
4410;BME280;2218;51.408;7.208;2022-12-19T07:20:37;99875.09;;;18.40;34.92
4410;BME280;2218;51.408;7.208;2022-12-19T07:23:08;99873.97;;;18.44;34.90
4410;BME280;2218;51.408;7.208;2022-12-19T07:25:37;99874.63;;;18.47;35.05
4410;BME280;2218;51.408;7.208;2022-12-19T07:28:06;99850.81;;;18.49;35.20
4410;BME280;2218;51.408;7.208;2022-12-19T07:30:33;99873.28;;;18.54;35.48
4410;BME280;2218;51.408;7.208;2022-12-19T07:33:00;99866.03;;;18.58;35.38
4410;BME280;2218;51.408;7.208;2022-12-19T07:35:27;99872.81;;;18.62;35.30
4410;BME280;2218;51.408;7.208;2022-12-19T07:37:54;99885.00;;;18.63;35.53
4410;BME280;2218;51.408;7.208;2022-12-19T07:40:20;99873.63;;;18.63;35.79
4410;BME280;2218;51.408;7.208;2022-12-19T07:42:49;99886.50;;;18.67;35.75
4410;BME280;2218;51.408;7.208;2022-12-19T07:45:16;99876.75;;;18.69;35.58
4410;BME280;2218;51.408;7.208;2022-12-19T07:47:43;99876.56;;;18.72;35.85
4410;BME280;2218;51.408;7.208;2022-12-19T07:50:10;99879.19;;;18.72;35.89
4410;BME280;2218;51.408;7.208;2022-12-19T07:52:37;99873.94;;;18.72;35.89
4410;BME280;2218;51.408;7.208;2022-12-19T07:55:05;99840.44;;;18.74;35.97
4410;BME280;2218;51.408;7.208;2022-12-19T07:57:32;99840.66;;;18.71;35.67
4410;BME280;2218;51.408;7.208;2022-12-19T08:00:00;99881.09;;;18.70;35.63
4410;BME280;2218;51.408;7.208;2022-12-19T08:02:27;99882.97;;;18.68;35.84
4410;BME280;2218;51.408;7.208;2022-12-19T08:04:54;99878.72;;;18.66;34.97
4410;BME280;2218;51.408;7.208;2022-12-19T08:07:21;99885.00;;;18.63;34.72
4410;BME280;2218;51.408;7.208;2022-12-19T08:09:48;99886.81;;;18.63;34.79
4410;BME280;2218;51.408;7.208;2022-12-19T08:12:15;99881.66;;;18.61;34.98
4410;BME280;2218;51.408;7.208;2022-12-19T08:14:42;99891.22;;;18.62;34.61
4410;BME280;2218;51.408;7.208;2022-12-19T08:17:10;99882.50;;;18.62;34.89
4410;BME280;2218;51.408;7.208;2022-12-19T08:19:37;99888.69;;;18.60;35.14
4410;BME280;2218;51.408;7.208;2022-12-19T08:22:04;99891.34;;;18.60;35.21
4410;BME280;2218;51.408;7.208;2022-12-19T08:24:31;99893.13;;;18.60;35.12
4410;BME280;2218;51.408;7.208;2022-12-19T08:26:58;99897.44;;;18.61;35.26
4410;BME280;2218;51.408;7.208;2022-12-19T08:29:25;99874.78;;;18.58;35.08
4410;BME280;2218;51.408;7.208;2022-12-19T08:31:52;99885.22;;;18.60;35.09
4410;BME280;2218;51.408;7.208;2022-12-19T08:34:20;99883.31;;;18.62;35.25
4410;BME280;2218;51.408;7.208;2022-12-19T08:36:47;99883.16;;;18.65;34.99
4410;BME280;2218;51.408;7.208;2022-12-19T08:39:14;99882.19;;;18.66;35.25
4410;BME280;2218;51.408;7.208;2022-12-19T08:41:41;99878.72;;;18.66;35.35
4410;BME280;2218;51.408;7.208;2022-12-19T08:44:10;99880.41;;;18.67;35.09
4410;BME280;2218;51.408;7.208;2022-12-19T08:46:37;99888.22;;;18.68;35.10
4410;BME280;2218;51.408;7.208;2022-12-19T08:49:04;99888.22;;;18.68;35.09
4410;BME280;2218;51.408;7.208;2022-12-19T08:51:33;99889.06;;;18.69;34.90
4410;BME280;2218;51.408;7.208;2022-12-19T08:54:00;99890.78;;;18.70;35.03
4410;BME280;2218;51.408;7.208;2022-12-19T08:56:27;99885.41;;;18.71;34.87
4410;BME280;2218;51.408;7.208;2022-12-19T08:58:54;99892.34;;;18.72;35.03
4410;BME280;2218;51.408;7.208;2022-12-19T09:01:21;99897.50;;;18.74;34.96
4410;BME280;2218;51.408;7.208;2022-12-19T09:03:50;99891.34;;;18.75;34.76
4410;BME280;2218;51.408;7.208;2022-12-19T09:06:17;99889.53;;;18.75;34.95
4410;BME280;2218;51.408;7.208;2022-12-19T09:08:45;99892.91;;;18.77;35.00
4410;BME280;2218;51.408;7.208;2022-12-19T09:11:15;99887.75;;;18.76;35.03
4410;BME280;2218;51.408;7.208;2022-12-19T09:13:44;99886.78;;;18.77;35.02
4410;BME280;2218;51.408;7.208;2022-12-19T09:16:15;99884.91;;;18.79;34.77
4410;BME280;2218;51.408;7.208;2022-12-19T09:18:45;99884.06;;;18.78;34.87
4410;BME280;2218;51.408;7.208;2022-12-19T09:21:13;99878.78;;;18.78;34.63
4410;BME280;2218;51.408;7.208;2022-12-19T09:23:42;99873.53;;;18.78;34.92
4410;BME280;2218;51.408;7.208;2022-12-19T09:26:12;99872.56;;;18.79;34.84
4410;BME280;2218;51.408;7.208;2022-12-19T09:28:40;99865.56;;;18.80;34.48
4410;BME280;2218;51.408;7.208;2022-12-19T09:31:12;99880.47;;;18.79;34.59
4410;BME280;2218;51.408;7.208;2022-12-19T09:33:41;99880.47;;;18.79;34.84
4410;BME280;2218;51.408;7.208;2022-12-19T09:36:13;99884.81;;;18.80;34.59
4410;BME280;2218;51.408;7.208;2022-12-19T09:38:44;99883.97;;;18.80;35.09
4410;BME280;2218;51.408;7.208;2022-12-19T09:41:58;99882.19;;;18.80;34.96
4410;BME280;2218;51.408;7.208;2022-12-19T09:44:51;99887.47;;;18.80;34.93
4410;BME280;2218;51.408;7.208;2022-12-19T09:47:25;99888.28;;;18.81;34.99
4410;BME280;2218;51.408;7.208;2022-12-19T09:49:52;99892.72;;;18.80;34.81
4410;BME280;2218;51.408;7.208;2022-12-19T09:52:26;99896.28;;;18.79;35.10
4410;BME280;2218;51.408;7.208;2022-12-19T09:54:57;99887.47;;;18.80;35.19
4410;BME280;2218;51.408;7.208;2022-12-19T09:57:39;99890.94;;;18.81;35.21
4410;BME280;2218;51.408;7.208;2022-12-19T10:00:14;99902.31;;;18.81;35.01
4410;BME280;2218;51.408;7.208;2022-12-19T10:02:46;99909.25;;;18.82;35.25
4410;BME280;2218;51.408;7.208;2022-12-19T10:05:23;99906.63;;;18.82;35.09
4410;BME280;2218;51.408;7.208;2022-12-19T10:07:59;99904.94;;;18.81;35.16
4410;BME280;2218;51.408;7.208;2022-12-19T10:10:44;99911.16;;;18.80;34.79
4410;BME280;2218;51.408;7.208;2022-12-19T10:13:28;99904.94;;;18.81;34.68
4410;BME280;2218;51.408;7.208;2022-12-19T10:16:07;99903.03;;;18.83;34.80
4410;BME280;2218;51.408;7.208;2022-12-19T10:18:49;99904.00;;;18.82;35.08
4410;BME280;2218;51.408;7.208;2022-12-19T10:21:32;99910.75;;;18.87;34.87
4410;BME280;2218;51.408;7.208;2022-12-19T10:24:32;99904.06;;;18.95;35.49
4410;BME280;2218;51.408;7.208;2022-12-19T10:27:16;99895.94;;;18.98;36.08
4410;BME280;2218;51.408;7.208;2022-12-19T10:30:00;99900.19;;;19.01;35.98
4410;BME280;2218;51.408;7.208;2022-12-19T10:32:39;99893.94;;;19.02;36.43
4410;BME280;2218;51.408;7.208;2022-12-19T10:35:15;99896.41;;;19.05;36.56
4410;BME280;2218;51.408;7.208;2022-12-19T10:37:49;99897.13;;;19.07;36.83
4410;BME280;2218;51.408;7.208;2022-12-19T10:40:27;99888.28;;;19.08;36.21
4410;BME280;2218;51.408;7.208;2022-12-19T10:42:59;99893.47;;;19.09;36.65
4410;BME280;2218;51.408;7.208;2022-12-19T10:45:37;99875.09;;;19.08;36.29
4410;BME280;2218;51.408;7.208;2022-12-19T10:48:15;99875.31;;;19.05;36.38
4410;BME280;2218;51.408;7.208;2022-12-19T10:50:43;99875.41;;;19.03;36.40
4410;BME280;2218;51.408;7.208;2022-12-19T10:53:12;99871.94;;;19.03;36.42
4410;BME280;2218;51.408;7.208;2022-12-19T10:55:43;99868.34;;;19.04;36.11
4410;BME280;2218;51.408;7.208;2022-12-19T10:58:24;99873.63;;;19.04;36.29
4410;BME280;2218;51.408;7.208;2022-12-19T11:01:23;99878.88;;;19.04;36.42
4410;BME280;2218;51.408;7.208;2022-12-19T11:04:12;99873.63;;;19.04;36.13
4410;BME280;2218;51.408;7.208;2022-12-19T11:06:49;99870.06;;;19.05;36.24
4410;BME280;2218;51.408;7.208;2022-12-19T11:09:30;99867.44;;;19.05;36.03
4410;BME280;2218;51.408;7.208;2022-12-19T11:12:08;99877.00;;;19.06;36.23
4410;BME280;2218;51.408;7.208;2022-12-19T11:14:40;99879.66;;;19.06;36.18
4410;BME280;2218;51.408;7.208;2022-12-19T11:17:36;99865.72;;;19.04;36.31
4410;BME280;2218;51.408;7.208;2022-12-19T11:20:16;99868.34;;;19.04;36.29
4410;BME280;2218;51.408;7.208;2022-12-19T11:22:51;99863.06;;;19.04;36.17
4410;BME280;2218;51.408;7.208;2022-12-19T11:25:23;99857.81;;;19.04;36.43
4410;BME280;2218;51.408;7.208;2022-12-19T11:27:56;99856.03;;;19.04;36.35
4410;BME280;2218;51.408;7.208;2022-12-19T11:30:25;99865.72;;;19.04;36.33
4410;BME280;2218;51.408;7.208;2022-12-19T11:33:12;99849.19;;;19.02;36.59
4410;BME280;2218;51.408;7.208;2022-12-19T11:35:49;99859.72;;;19.02;36.50
4410;BME280;2218;51.408;7.208;2022-12-19T11:38:33;99860.56;;;19.02;36.41
4410;BME280;2218;51.408;7.208;2022-12-19T11:41:16;99860.56;;;19.02;36.59
4410;BME280;2218;51.408;7.208;2022-12-19T11:43:55;99868.34;;;19.04;35.88
4410;BME280;2218;51.408;7.208;2022-12-19T11:46:37;99863.06;;;19.04;36.44
4410;BME280;2218;51.408;7.208;2022-12-19T11:49:20;99871.81;;;19.04;36.38
4410;BME280;2218;51.408;7.208;2022-12-19T11:51:55;99863.06;;;19.04;36.09
4410;BME280;2218;51.408;7.208;2022-12-19T11:54:28;99866.66;;;19.03;36.09
4410;BME280;2218;51.408;7.208;2022-12-19T11:56:57;99873.72;;;19.02;36.28
4410;BME280;2218;51.408;7.208;2022-12-19T11:59:30;99872.78;;;19.03;36.29
4410;BME280;2218;51.408;7.208;2022-12-19T12:02:15;99863.91;;;19.04;36.08
4410;BME280;2218;51.408;7.208;2022-12-19T12:05:06;99867.44;;;19.05;36.48
4410;BME280;2218;51.408;7.208;2022-12-19T12:07:40;99862.16;;;19.05;36.25
4410;BME280;2218;51.408;7.208;2022-12-19T12:10:15;99858.56;;;19.06;36.41
4410;BME280;2218;51.408;7.208;2022-12-19T12:12:58;99857.63;;;19.07;36.43
4410;BME280;2218;51.408;7.208;2022-12-19T12:15:42;99845.41;;;19.06;35.69
4410;BME280;2218;51.408;7.208;2022-12-19T12:18:33;99848.03;;;19.06;36.26
4410;BME280;2218;51.408;7.208;2022-12-19T12:21:16;99854.25;;;19.05;36.07
4410;BME280;2218;51.408;7.208;2022-12-19T12:24:03;99850.75;;;19.04;36.47
4410;BME280;2218;51.408;7.208;2022-12-19T12:26:35;99850.66;;;19.06;36.34
4410;BME280;2218;51.408;7.208;2022-12-19T12:29:13;99853.06;;;19.09;36.39
4410;BME280;2218;51.408;7.208;2022-12-19T12:32:03;99842.34;;;19.12;36.28
4410;BME280;2218;51.408;7.208;2022-12-19T12:34:58;99849.00;;;19.18;36.57
4410;BME280;2218;51.408;7.208;2022-12-19T12:37:45;99851.31;;;19.22;36.89
4410;BME280;2218;51.408;7.208;2022-12-19T12:40:33;99841.63;;;19.23;36.97
4410;BME280;2218;51.408;7.208;2022-12-19T12:43:23;99845.88;;;19.25;37.02
4410;BME280;2218;51.408;7.208;2022-12-19T12:45:53;99818.69;;;19.25;37.06
4410;BME280;2218;51.408;7.208;2022-12-19T12:48:27;99824.69;;;19.27;36.91
4410;BME280;2218;51.408;7.208;2022-12-19T12:50:59;99817.59;;;19.27;37.18
4410;BME280;2218;51.408;7.208;2022-12-19T12:53:33;99810.53;;;19.28;37.04
4410;BME280;2218;51.408;7.208;2022-12-19T12:56:03;99801.59;;;19.30;37.21
4410;BME280;2218;51.408;7.208;2022-12-19T12:59:04;99807.59;;;19.32;37.20
4410;BME280;2218;51.408;7.208;2022-12-19T13:01:36;99804.13;;;19.32;37.09
4410;BME280;2218;51.408;7.208;2022-12-19T13:04:20;99804.84;;;19.34;36.98
4410;BME280;2218;51.408;7.208;2022-12-19T13:07:32;99812.69;;;19.35;36.99
4410;BME280;2218;51.408;7.208;2022-12-19T13:10:23;99814.47;;;19.35;37.05
4410;BME280;2218;51.408;7.208;2022-12-19T13:13:00;99816.16;;;19.36;37.23
4410;BME280;2218;51.408;7.208;2022-12-19T13:15:45;99818.78;;;19.36;36.73
4410;BME280;2218;51.408;7.208;2022-12-19T13:18:32;99824.06;;;19.36;36.81
4410;BME280;2218;51.408;7.208;2022-12-19T13:21:04;99822.25;;;19.36;37.03
4410;BME280;2218;51.408;7.208;2022-12-19T13:24:13;99813.41;;;19.37;37.05
4410;BME280;2218;51.408;7.208;2022-12-19T13:26:49;99809.81;;;19.38;36.89
4410;BME280;2218;51.408;7.208;2022-12-19T13:29:29;99803.63;;;19.40;36.81
4410;BME280;2218;51.408;7.208;2022-12-19T13:32:14;99800.97;;;19.40;36.97
4410;BME280;2218;51.408;7.208;2022-12-19T13:34:53;99799.19;;;19.40;36.87
4410;BME280;2218;51.408;7.208;2022-12-19T13:37:30;99799.19;;;19.40;37.09
4410;BME280;2218;51.408;7.208;2022-12-19T13:40:12;99798.34;;;19.40;37.00
4410;BME280;2218;51.408;7.208;2022-12-19T13:42:57;99803.38;;;19.43;36.86
4410;BME280;2218;51.408;7.208;2022-12-19T13:45:51;99802.44;;;19.44;36.66
4410;BME280;2218;51.408;7.208;2022-12-19T13:48:28;99800.56;;;19.46;36.72
4410;BME280;2218;51.408;7.208;2022-12-19T13:50:58;99800.56;;;19.46;36.81
4410;BME280;2218;51.408;7.208;2022-12-19T13:53:28;99795.28;;;19.46;36.76